Terminal Aerodrome Forecast
Issued by NWS Cleveland, OH

Home | Current Version | Previous Version | Text Only | Print | Product List | Glossary On
Versions: 1 2 3 4 5 6 7 8 9 10 11 12 13 14 15 16 17 18 19
000
FTUS41 KCLE 111120
TAFYNG
TAF
KYNG 111120Z 1112/1212 25008KT P6SM -SN SCT015 OVC025
     FM111800 18006KT P6SM SCT025 OVC035
     FM120200 19008KT 5SM -SN BKN012 OVC025
     FM120800 25012G18KT 1 1/2SM -SN OVC008=

USA.gov is the U.S. government's official web portal to all federal, state and local government web resources and services.